Oakwood, Oklahoma
Current Conditions -  °F | °C
As of 6:15 AM on Friday 31 Oct 2014 (Local Time) from KJWG Reporting Station
Clear Clear  
Wind Chill: 38°   Ceiling: Unl
Heat Index: 44°   Visibility: 10mi
Dew Point: 39°   Wind: 14mph
Humidity: 82%   Direction: 360°N
Pressure: 30.39"   Gusts: NA
Location:  35.93°N, 98.71°W
Report Text: KJWG 311115Z AUTO 36012KT 10SM CLR 07/04 A3039 RMK AO2 T00690040
Loading
Personal Weather Stations






























Interactive Weather Map
Tropical Storm Tracking
New forecast layout! Learn more

10-Day Weather Forecast

Advertisements
Track Severe Weather on mobile